sensor_id;sensor_type;location;lat;lon;timestamp;P1;durP1;ratioP1;P2;durP2;ratioP2
77866;SDS011;67271;59.120;37.970;2023-08-31T00:03:28;8.35;;;3.72;;
77866;SDS011;67271;59.120;37.970;2023-08-31T00:05:55;6.82;;;3.80;;
77866;SDS011;67271;59.120;37.970;2023-08-31T00:08:22;9.77;;;4.53;;
77866;SDS011;67271;59.120;37.970;2023-08-31T00:10:54;10.30;;;4.07;;
77866;SDS011;67271;59.120;37.970;2023-08-31T00:13:21;6.55;;;3.90;;
77866;SDS011;67271;59.120;37.970;2023-08-31T00:15:47;7.28;;;3.83;;
77866;SDS011;67271;59.120;37.970;2023-08-31T00:18:14;6.47;;;3.67;;
77866;SDS011;67271;59.120;37.970;2023-08-31T00:20:41;6.45;;;3.72;;
77866;SDS011;67271;59.120;37.970;2023-08-31T00:23:08;9.27;;;4.03;;
77866;SDS011;67271;59.120;37.970;2023-08-31T00:25:33;7.55;;;4.47;;
77866;SDS011;67271;59.120;37.970;2023-08-31T00:27:59;6.00;;;3.53;;
77866;SDS011;67271;59.120;37.970;2023-08-31T00:30:33;6.05;;;3.67;;
77866;SDS011;67271;59.120;37.970;2023-08-31T00:32:59;7.18;;;4.13;;
77866;SDS011;67271;59.120;37.970;2023-08-31T00:35:27;8.20;;;4.43;;
77866;SDS011;67271;59.120;37.970;2023-08-31T00:37:53;6.72;;;4.25;;
77866;SDS011;67271;59.120;37.970;2023-08-31T00:40:27;7.78;;;4.75;;
77866;SDS011;67271;59.120;37.970;2023-08-31T00:43:05;9.13;;;4.18;;
77866;SDS011;67271;59.120;37.970;2023-08-31T00:45:30;7.22;;;4.50;;
77866;SDS011;67271;59.120;37.970;2023-08-31T00:47:56;7.25;;;4.35;;
77866;SDS011;67271;59.120;37.970;2023-08-31T00:50:22;8.43;;;4.38;;
77866;SDS011;67271;59.120;37.970;2023-08-31T00:52:48;10.90;;;4.63;;
77866;SDS011;67271;59.120;37.970;2023-08-31T00:55:14;8.80;;;4.85;;
77866;SDS011;67271;59.120;37.970;2023-08-31T00:57:43;8.68;;;4.78;;
77866;SDS011;67271;59.120;37.970;2023-08-31T01:00:10;9.68;;;4.80;;
77866;SDS011;67271;59.120;37.970;2023-08-31T01:02:40;7.72;;;4.90;;
77866;SDS011;67271;59.120;37.970;2023-08-31T01:10:54;9.88;;;4.65;;
77866;SDS011;67271;59.120;37.970;2023-08-31T01:13:31;13.70;;;5.18;;
77866;SDS011;67271;59.120;37.970;2023-08-31T01:16:00;11.32;;;5.70;;
77866;SDS011;67271;59.120;37.970;2023-08-31T01:18:30;10.38;;;5.13;;
77866;SDS011;67271;59.120;37.970;2023-08-31T01:23:52;8.43;;;4.55;;
77866;SDS011;67271;59.120;37.970;2023-08-31T01:26:19;12.15;;;5.40;;
77866;SDS011;67271;59.120;37.970;2023-08-31T01:28:46;9.02;;;5.43;;
77866;SDS011;67271;59.120;37.970;2023-08-31T01:31:14;9.30;;;5.22;;
77866;SDS011;67271;59.120;37.970;2023-08-31T01:33:41;9.93;;;6.00;;
77866;SDS011;67271;59.120;37.970;2023-08-31T01:36:29;16.35;;;6.00;;
77866;SDS011;67271;59.120;37.970;2023-08-31T01:38:57;10.73;;;5.93;;
77866;SDS011;67271;59.120;37.970;2023-08-31T01:41:29;10.50;;;5.53;;
77866;SDS011;67271;59.120;37.970;2023-08-31T01:44:00;11.25;;;6.00;;
77866;SDS011;67271;59.120;37.970;2023-08-31T01:46:27;10.20;;;5.50;;
77866;SDS011;67271;59.120;37.970;2023-08-31T01:48:53;10.75;;;6.20;;
77866;SDS011;67271;59.120;37.970;2023-08-31T01:51:19;19.30;;;9.13;;
77866;SDS011;67271;59.120;37.970;2023-08-31T01:53:45;14.05;;;6.60;;
77866;SDS011;67271;59.120;37.970;2023-08-31T01:56:11;12.30;;;6.70;;
77866;SDS011;67271;59.120;37.970;2023-08-31T01:58:39;14.93;;;6.50;;
77866;SDS011;67271;59.120;37.970;2023-08-31T02:01:05;14.57;;;7.13;;
77866;SDS011;67271;59.120;37.970;2023-08-31T02:03:31;14.18;;;7.82;;
77866;SDS011;67271;59.120;37.970;2023-08-31T02:05:57;13.82;;;6.95;;
77866;SDS011;67271;59.120;37.970;2023-08-31T02:08:22;14.25;;;7.13;;
77866;SDS011;67271;59.120;37.970;2023-08-31T02:10:50;16.92;;;7.75;;
77866;SDS011;67271;59.120;37.970;2023-08-31T02:13:21;15.73;;;7.53;;
77866;SDS011;67271;59.120;37.970;2023-08-31T02:15:50;14.70;;;6.47;;
77866;SDS011;67271;59.120;37.970;2023-08-31T02:18:19;14.70;;;7.72;;
77866;SDS011;67271;59.120;37.970;2023-08-31T02:20:45;13.27;;;7.32;;
77866;SDS011;67271;59.120;37.970;2023-08-31T02:23:11;11.65;;;7.72;;
77866;SDS011;67271;59.120;37.970;2023-08-31T02:25:37;17.98;;;8.85;;
77866;SDS011;67271;59.120;37.970;2023-08-31T02:28:03;15.55;;;7.93;;
77866;SDS011;67271;59.120;37.970;2023-08-31T02:30:29;20.77;;;8.13;;
77866;SDS011;67271;59.120;37.970;2023-08-31T02:32:56;19.33;;;8.05;;
77866;SDS011;67271;59.120;37.970;2023-08-31T02:35:22;13.32;;;7.30;;
77866;SDS011;67271;59.120;37.970;2023-08-31T02:37:48;16.50;;;8.10;;
77866;SDS011;67271;59.120;37.970;2023-08-31T02:40:17;17.13;;;7.50;;
77866;SDS011;67271;59.120;37.970;2023-08-31T02:42:43;15.05;;;7.90;;
77866;SDS011;67271;59.120;37.970;2023-08-31T02:45:08;21.05;;;8.65;;
77866;SDS011;67271;59.120;37.970;2023-08-31T02:47:37;13.77;;;8.00;;
77866;SDS011;67271;59.120;37.970;2023-08-31T02:50:03;15.65;;;7.68;;
77866;SDS011;67271;59.120;37.970;2023-08-31T02:52:29;18.58;;;8.82;;
77866;SDS011;67271;59.120;37.970;2023-08-31T02:54:55;16.73;;;8.68;;
77866;SDS011;67271;59.120;37.970;2023-08-31T02:57:21;21.60;;;9.38;;
77866;SDS011;67271;59.120;37.970;2023-08-31T02:59:50;19.05;;;8.70;;
77866;SDS011;67271;59.120;37.970;2023-08-31T03:02:16;18.35;;;10.38;;
77866;SDS011;67271;59.120;37.970;2023-08-31T03:04:42;16.88;;;9.30;;
77866;SDS011;67271;59.120;37.970;2023-08-31T03:07:08;19.65;;;10.10;;
77866;SDS011;67271;59.120;37.970;2023-08-31T03:09:39;16.50;;;9.63;;
77866;SDS011;67271;59.120;37.970;2023-08-31T03:12:05;24.13;;;12.15;;
77866;SDS011;67271;59.120;37.970;2023-08-31T03:14:31;18.58;;;10.02;;
77866;SDS011;67271;59.120;37.970;2023-08-31T03:16:57;18.35;;;9.73;;
77866;SDS011;67271;59.120;37.970;2023-08-31T03:19:23;16.30;;;9.40;;
77866;SDS011;67271;59.120;37.970;2023-08-31T03:21:49;19.90;;;9.93;;
77866;SDS011;67271;59.120;37.970;2023-08-31T03:24:15;19.88;;;10.07;;
77866;SDS011;67271;59.120;37.970;2023-08-31T03:26:41;21.90;;;10.77;;
77866;SDS011;67271;59.120;37.970;2023-08-31T03:29:07;19.58;;;10.20;;
77866;SDS011;67271;59.120;37.970;2023-08-31T03:31:33;23.10;;;10.90;;
77866;SDS011;67271;59.120;37.970;2023-08-31T03:33:59;21.42;;;10.25;;
77866;SDS011;67271;59.120;37.970;2023-08-31T03:36:25;24.73;;;11.15;;
77866;SDS011;67271;59.120;37.970;2023-08-31T03:38:51;19.75;;;10.18;;
77866;SDS011;67271;59.120;37.970;2023-08-31T03:41:17;18.33;;;11.05;;
77866;SDS011;67271;59.120;37.970;2023-08-31T03:43:43;20.27;;;11.23;;
77866;SDS011;67271;59.120;37.970;2023-08-31T03:46:10;19.23;;;10.30;;
77866;SDS011;67271;59.120;37.970;2023-08-31T03:48:36;18.95;;;10.52;;
77866;SDS011;67271;59.120;37.970;2023-08-31T03:51:02;24.05;;;10.95;;
77866;SDS011;67271;59.120;37.970;2023-08-31T03:53:28;19.52;;;10.25;;
77866;SDS011;67271;59.120;37.970;2023-08-31T03:55:56;17.83;;;9.35;;
77866;SDS011;67271;59.120;37.970;2023-08-31T03:58:23;17.90;;;8.77;;
77866;SDS011;67271;59.120;37.970;2023-08-31T04:00:51;20.08;;;9.23;;
77866;SDS011;67271;59.120;37.970;2023-08-31T04:03:18;14.80;;;8.15;;
77866;SDS011;67271;59.120;37.970;2023-08-31T04:05:44;16.48;;;8.63;;
77866;SDS011;67271;59.120;37.970;2023-08-31T04:08:10;14.23;;;8.13;;
77866;SDS011;67271;59.120;37.970;2023-08-31T04:10:37;13.10;;;7.55;;
77866;SDS011;67271;59.120;37.970;2023-08-31T04:13:03;16.08;;;8.50;;
77866;SDS011;67271;59.120;37.970;2023-08-31T04:15:29;16.63;;;8.60;;
77866;SDS011;67271;59.120;37.970;2023-08-31T04:17:56;13.55;;;8.02;;
77866;SDS011;67271;59.120;37.970;2023-08-31T04:20:22;12.52;;;7.20;;
77866;SDS011;67271;59.120;37.970;2023-08-31T04:22:48;12.30;;;7.72;;
77866;SDS011;67271;59.120;37.970;2023-08-31T04:25:14;13.73;;;6.93;;
77866;SDS011;67271;59.120;37.970;2023-08-31T04:27:39;14.75;;;7.72;;
77866;SDS011;67271;59.120;37.970;2023-08-31T04:30:05;10.50;;;7.40;;
77866;SDS011;67271;59.120;37.970;2023-08-31T04:32:32;13.75;;;7.43;;
77866;SDS011;67271;59.120;37.970;2023-08-31T04:34:58;13.63;;;7.18;;
77866;SDS011;67271;59.120;37.970;2023-08-31T04:37:24;12.45;;;6.72;;
77866;SDS011;67271;59.120;37.970;2023-08-31T04:39:50;13.55;;;7.28;;
77866;SDS011;67271;59.120;37.970;2023-08-31T04:42:16;10.68;;;6.85;;
77866;SDS011;67271;59.120;37.970;2023-08-31T04:44:42;12.30;;;7.07;;
77866;SDS011;67271;59.120;37.970;2023-08-31T04:47:08;12.68;;;7.53;;
77866;SDS011;67271;59.120;37.970;2023-08-31T04:49:34;10.70;;;6.75;;
77866;SDS011;67271;59.120;37.970;2023-08-31T04:52:00;10.18;;;6.43;;
77866;SDS011;67271;59.120;37.970;2023-08-31T04:54:26;9.85;;;6.30;;
77866;SDS011;67271;59.120;37.970;2023-08-31T04:56:52;11.23;;;6.25;;
77866;SDS011;67271;59.120;37.970;2023-08-31T04:59:17;10.57;;;6.57;;
77866;SDS011;67271;59.120;37.970;2023-08-31T05:01:43;11.05;;;6.82;;
77866;SDS011;67271;59.120;37.970;2023-08-31T05:04:09;10.25;;;6.05;;
77866;SDS011;67271;59.120;37.970;2023-08-31T05:06:35;11.60;;;6.63;;
77866;SDS011;67271;59.120;37.970;2023-08-31T05:09:01;10.35;;;6.47;;
77866;SDS011;67271;59.120;37.970;2023-08-31T05:11:27;10.10;;;5.93;;
77866;SDS011;67271;59.120;37.970;2023-08-31T05:13:53;12.25;;;6.00;;
77866;SDS011;67271;59.120;37.970;2023-08-31T05:16:19;8.95;;;5.47;;
77866;SDS011;67271;59.120;37.970;2023-08-31T05:18:45;9.18;;;6.32;;
77866;SDS011;67271;59.120;37.970;2023-08-31T05:21:11;10.75;;;6.00;;
77866;SDS011;67271;59.120;37.970;2023-08-31T05:23:37;9.13;;;6.38;;
77866;SDS011;67271;59.120;37.970;2023-08-31T05:26:03;8.88;;;5.60;;
77866;SDS011;67271;59.120;37.970;2023-08-31T05:28:28;10.15;;;6.05;;
77866;SDS011;67271;59.120;37.970;2023-08-31T05:30:57;10.98;;;6.55;;
77866;SDS011;67271;59.120;37.970;2023-08-31T05:33:26;8.73;;;5.40;;
77866;SDS011;67271;59.120;37.970;2023-08-31T05:35:54;9.48;;;5.68;;
77866;SDS011;67271;59.120;37.970;2023-08-31T05:38:20;9.73;;;5.65;;
77866;SDS011;67271;59.120;37.970;2023-08-31T05:40:46;8.80;;;5.47;;
77866;SDS011;67271;59.120;37.970;2023-08-31T05:43:12;11.90;;;5.97;;
77866;SDS011;67271;59.120;37.970;2023-08-31T05:45:39;9.32;;;6.07;;
77866;SDS011;67271;59.120;37.970;2023-08-31T05:48:05;9.52;;;5.55;;
77866;SDS011;67271;59.120;37.970;2023-08-31T05:50:31;9.63;;;5.65;;
77866;SDS011;67271;59.120;37.970;2023-08-31T05:52:57;9.65;;;5.60;;
77866;SDS011;67271;59.120;37.970;2023-08-31T05:55:23;10.82;;;6.25;;
77866;SDS011;67271;59.120;37.970;2023-08-31T05:57:49;10.02;;;6.15;;
77866;SDS011;67271;59.120;37.970;2023-08-31T06:00:15;20.38;;;6.22;;
77866;SDS011;67271;59.120;37.970;2023-08-31T06:02:42;10.52;;;5.95;;
77866;SDS011;67271;59.120;37.970;2023-08-31T06:05:11;12.98;;;6.05;;
77866;SDS011;67271;59.120;37.970;2023-08-31T06:07:38;18.98;;;5.60;;
77866;SDS011;67271;59.120;37.970;2023-08-31T06:10:05;10.40;;;6.20;;
77866;SDS011;67271;59.120;37.970;2023-08-31T06:12:31;14.27;;;7.13;;
77866;SDS011;67271;59.120;37.970;2023-08-31T06:14:57;13.80;;;7.93;;
77866;SDS011;67271;59.120;37.970;2023-08-31T06:17:23;9.40;;;6.10;;
77866;SDS011;67271;59.120;37.970;2023-08-31T06:19:49;13.85;;;6.82;;
77866;SDS011;67271;59.120;37.970;2023-08-31T06:22:15;19.98;;;6.93;;
77866;SDS011;67271;59.120;37.970;2023-08-31T06:24:41;10.57;;;5.70;;
77866;SDS011;67271;59.120;37.970;2023-08-31T06:27:07;12.95;;;6.25;;
77866;SDS011;67271;59.120;37.970;2023-08-31T06:29:33;11.52;;;6.32;;
77866;SDS011;67271;59.120;37.970;2023-08-31T06:31:59;12.48;;;6.57;;
77866;SDS011;67271;59.120;37.970;2023-08-31T06:34:25;11.80;;;7.30;;
77866;SDS011;67271;59.120;37.970;2023-08-31T06:36:53;11.10;;;6.10;;
77866;SDS011;67271;59.120;37.970;2023-08-31T06:39:19;11.38;;;7.22;;
77866;SDS011;67271;59.120;37.970;2023-08-31T06:41:44;10.73;;;6.75;;
77866;SDS011;67271;59.120;37.970;2023-08-31T06:44:10;11.65;;;6.32;;
77866;SDS011;67271;59.120;37.970;2023-08-31T06:46:39;11.55;;;5.65;;
77866;SDS011;67271;59.120;37.970;2023-08-31T06:49:05;11.05;;;6.32;;
77866;SDS011;67271;59.120;37.970;2023-08-31T06:51:33;12.38;;;6.82;;
77866;SDS011;67271;59.120;37.970;2023-08-31T06:54:02;12.80;;;5.90;;
77866;SDS011;67271;59.120;37.970;2023-08-31T06:56:32;10.40;;;6.22;;
77866;SDS011;67271;59.120;37.970;2023-08-31T06:58:59;12.60;;;7.55;;
77866;SDS011;67271;59.120;37.970;2023-08-31T07:01:25;8.15;;;5.10;;
77866;SDS011;67271;59.120;37.970;2023-08-31T07:03:52;10.20;;;6.03;;
77866;SDS011;67271;59.120;37.970;2023-08-31T07:06:18;15.85;;;5.80;;
77866;SDS011;67271;59.120;37.970;2023-08-31T07:08:44;8.48;;;5.72;;
77866;SDS011;67271;59.120;37.970;2023-08-31T07:11:11;10.00;;;6.30;;
77866;SDS011;67271;59.120;37.970;2023-08-31T07:13:37;13.98;;;7.63;;
77866;SDS011;67271;59.120;37.970;2023-08-31T07:16:02;9.10;;;5.07;;
77866;SDS011;67271;59.120;37.970;2023-08-31T07:18:29;11.07;;;4.53;;
77866;SDS011;67271;59.120;37.970;2023-08-31T07:20:55;11.07;;;4.75;;
77866;SDS011;67271;59.120;37.970;2023-08-31T07:23:21;9.73;;;5.55;;
77866;SDS011;67271;59.120;37.970;2023-08-31T07:25:47;9.75;;;5.18;;
77866;SDS011;67271;59.120;37.970;2023-08-31T07:28:14;8.80;;;4.78;;
77866;SDS011;67271;59.120;37.970;2023-08-31T07:30:40;6.65;;;4.53;;
77866;SDS011;67271;59.120;37.970;2023-08-31T07:33:06;9.55;;;5.38;;
77866;SDS011;67271;59.120;37.970;2023-08-31T07:35:32;7.03;;;5.05;;
77866;SDS011;67271;59.120;37.970;2023-08-31T07:37:58;9.48;;;5.82;;
77866;SDS011;67271;59.120;37.970;2023-08-31T07:40:24;9.98;;;5.68;;
77866;SDS011;67271;59.120;37.970;2023-08-31T07:42:50;7.80;;;4.68;;
77866;SDS011;67271;59.120;37.970;2023-08-31T07:45:17;8.55;;;5.60;;
77866;SDS011;67271;59.120;37.970;2023-08-31T07:47:43;18.08;;;5.72;;
77866;SDS011;67271;59.120;37.970;2023-08-31T07:50:09;9.45;;;4.65;;
77866;SDS011;67271;59.120;37.970;2023-08-31T07:52:35;13.82;;;6.28;;
77866;SDS011;67271;59.120;37.970;2023-08-31T07:55:03;7.68;;;5.40;;
77866;SDS011;67271;59.120;37.970;2023-08-31T07:57:29;10.43;;;5.45;;
77866;SDS011;67271;59.120;37.970;2023-08-31T07:59:55;7.30;;;4.90;;
77866;SDS011;67271;59.120;37.970;2023-08-31T08:02:21;7.00;;;4.80;;
77866;SDS011;67271;59.120;37.970;2023-08-31T08:04:47;8.32;;;5.25;;
77866;SDS011;67271;59.120;37.970;2023-08-31T08:07:13;12.80;;;5.13;;
77866;SDS011;67271;59.120;37.970;2023-08-31T08:09:39;8.43;;;4.90;;
77866;SDS011;67271;59.120;37.970;2023-08-31T08:12:05;7.63;;;4.88;;
77866;SDS011;67271;59.120;37.970;2023-08-31T08:14:32;8.05;;;5.35;;
77866;SDS011;67271;59.120;37.970;2023-08-31T08:16:59;8.52;;;5.28;;
77866;SDS011;67271;59.120;37.970;2023-08-31T08:19:27;13.60;;;5.35;;
77866;SDS011;67271;59.120;37.970;2023-08-31T08:21:53;8.77;;;4.75;;
77866;SDS011;67271;59.120;37.970;2023-08-31T08:24:19;9.82;;;5.60;;
77866;SDS011;67271;59.120;37.970;2023-08-31T08:26:45;14.73;;;5.28;;
77866;SDS011;67271;59.120;37.970;2023-08-31T08:29:11;11.50;;;5.55;;
77866;SDS011;67271;59.120;37.970;2023-08-31T08:31:37;9.18;;;4.93;;
77866;SDS011;67271;59.120;37.970;2023-08-31T08:34:03;10.77;;;5.80;;
77866;SDS011;67271;59.120;37.970;2023-08-31T08:36:31;10.07;;;5.07;;
77866;SDS011;67271;59.120;37.970;2023-08-31T08:38:57;13.07;;;5.38;;
77866;SDS011;67271;59.120;37.970;2023-08-31T08:41:23;12.65;;;6.13;;
77866;SDS011;67271;59.120;37.970;2023-08-31T08:43:50;10.50;;;5.20;;
77866;SDS011;67271;59.120;37.970;2023-08-31T08:46:17;8.50;;;5.22;;
77866;SDS011;67271;59.120;37.970;2023-08-31T08:48:44;10.55;;;5.82;;
77866;SDS011;67271;59.120;37.970;2023-08-31T08:51:13;11.85;;;6.78;;
77866;SDS011;67271;59.120;37.970;2023-08-31T08:53:41;12.23;;;6.07;;
77866;SDS011;67271;59.120;37.970;2023-08-31T08:56:09;16.08;;;6.55;;
77866;SDS011;67271;59.120;37.970;2023-08-31T08:58:35;8.02;;;4.90;;
77866;SDS011;67271;59.120;37.970;2023-08-31T09:01:00;9.77;;;5.35;;
77866;SDS011;67271;59.120;37.970;2023-08-31T09:03:27;15.48;;;6.00;;
77866;SDS011;67271;59.120;37.970;2023-08-31T09:05:53;8.18;;;6.03;;
77866;SDS011;67271;59.120;37.970;2023-08-31T09:08:26;15.07;;;5.53;;
77866;SDS011;67271;59.120;37.970;2023-08-31T09:10:54;9.48;;;6.30;;
77866;SDS011;67271;59.120;37.970;2023-08-31T09:13:25;13.80;;;5.57;;
77866;SDS011;67271;59.120;37.970;2023-08-31T09:15:53;9.63;;;6.00;;
77866;SDS011;67271;59.120;37.970;2023-08-31T09:18:23;16.20;;;6.60;;
77866;SDS011;67271;59.120;37.970;2023-08-31T09:20:50;17.45;;;5.50;;
77866;SDS011;67271;59.120;37.970;2023-08-31T09:23:17;13.57;;;5.65;;
77866;SDS011;67271;59.120;37.970;2023-08-31T09:25:44;12.65;;;5.25;;
77866;SDS011;67271;59.120;37.970;2023-08-31T09:28:14;13.75;;;6.07;;
77866;SDS011;67271;59.120;37.970;2023-08-31T09:30:44;9.77;;;6.15;;
77866;SDS011;67271;59.120;37.970;2023-08-31T09:33:14;8.80;;;5.82;;
77866;SDS011;67271;59.120;37.970;2023-08-31T09:35:52;10.07;;;5.40;;
77866;SDS011;67271;59.120;37.970;2023-08-31T09:38:20;17.92;;;6.25;;
77866;SDS011;67271;59.120;37.970;2023-08-31T09:40:46;13.80;;;7.28;;
77866;SDS011;67271;59.120;37.970;2023-08-31T09:43:19;9.23;;;6.47;;
77866;SDS011;67271;59.120;37.970;2023-08-31T09:45:49;9.52;;;5.47;;
77866;SDS011;67271;59.120;37.970;2023-08-31T09:48:16;9.18;;;5.45;;
77866;SDS011;67271;59.120;37.970;2023-08-31T09:50:45;8.35;;;5.43;;
77866;SDS011;67271;59.120;37.970;2023-08-31T09:53:11;8.18;;;5.32;;
77866;SDS011;67271;59.120;37.970;2023-08-31T09:55:39;9.15;;;6.10;;
77866;SDS011;67271;59.120;37.970;2023-08-31T09:58:07;10.82;;;6.15;;
77866;SDS011;67271;59.120;37.970;2023-08-31T10:03:02;14.25;;;5.30;;
77866;SDS011;67271;59.120;37.970;2023-08-31T10:05:30;10.75;;;5.43;;
77866;SDS011;67271;59.120;37.970;2023-08-31T10:07:57;11.35;;;6.30;;
77866;SDS011;67271;59.120;37.970;2023-08-31T10:10:23;10.13;;;5.63;;
77866;SDS011;67271;59.120;37.970;2023-08-31T10:12:50;13.25;;;6.72;;
77866;SDS011;67271;59.120;37.970;2023-08-31T10:15:17;11.50;;;5.70;;
77866;SDS011;67271;59.120;37.970;2023-08-31T10:17:44;9.95;;;6.10;;
77866;SDS011;67271;59.120;37.970;2023-08-31T10:20:11;13.30;;;5.63;;
77866;SDS011;67271;59.120;37.970;2023-08-31T10:22:38;8.57;;;5.60;;
77866;SDS011;67271;59.120;37.970;2023-08-31T10:25:05;13.18;;;4.93;;
77866;SDS011;67271;59.120;37.970;2023-08-31T10:27:50;9.20;;;4.53;;
77866;SDS011;67271;59.120;37.970;2023-08-31T10:38:26;11.32;;;5.10;;
77866;SDS011;67271;59.120;37.970;2023-08-31T10:41:03;6.93;;;4.18;;
77866;SDS011;67271;59.120;37.970;2023-08-31T10:43:53;7.60;;;4.53;;
77866;SDS011;67271;59.120;37.970;2023-08-31T10:46:27;9.70;;;4.65;;
77866;SDS011;67271;59.120;37.970;2023-08-31T10:48:55;9.05;;;5.03;;
77866;SDS011;67271;59.120;37.970;2023-08-31T10:51:31;8.00;;;4.72;;
77866;SDS011;67271;59.120;37.970;2023-08-31T10:54:31;6.07;;;4.22;;
77866;SDS011;67271;59.120;37.970;2023-08-31T10:59:41;10.73;;;4.55;;
77866;SDS011;67271;59.120;37.970;2023-08-31T11:02:56;7.57;;;4.30;;
77866;SDS011;67271;59.120;37.970;2023-08-31T11:07:38;9.77;;;5.20;;
77866;SDS011;67271;59.120;37.970;2023-08-31T11:10:06;10.30;;;5.32;;
77866;SDS011;67271;59.120;37.970;2023-08-31T11:12:46;12.50;;;6.40;;
77866;SDS011;67271;59.120;37.970;2023-08-31T11:15:13;7.15;;;4.32;;
77866;SDS011;67271;59.120;37.970;2023-08-31T11:17:44;9.40;;;5.20;;
77866;SDS011;67271;59.120;37.970;2023-08-31T11:20:15;7.43;;;4.72;;
77866;SDS011;67271;59.120;37.970;2023-08-31T11:22:43;5.65;;;4.15;;
77866;SDS011;67271;59.120;37.970;2023-08-31T11:25:11;11.45;;;5.30;;
77866;SDS011;67271;59.120;37.970;2023-08-31T11:27:37;7.60;;;5.05;;
77866;SDS011;67271;59.120;37.970;2023-08-31T11:30:15;5.43;;;3.13;;
77866;SDS011;67271;59.120;37.970;2023-08-31T11:32:49;5.55;;;4.00;;
77866;SDS011;67271;59.120;37.970;2023-08-31T11:35:19;7.35;;;4.43;;
77866;SDS011;67271;59.120;37.970;2023-08-31T11:37:51;8.48;;;4.60;;
77866;SDS011;67271;59.120;37.970;2023-08-31T11:40:18;7.30;;;4.00;;
77866;SDS011;67271;59.120;37.970;2023-08-31T11:42:44;8.30;;;5.15;;
77866;SDS011;67271;59.120;37.970;2023-08-31T11:45:10;6.22;;;3.88;;
77866;SDS011;67271;59.120;37.970;2023-08-31T11:47:39;10.20;;;5.55;;
77866;SDS011;67271;59.120;37.970;2023-08-31T11:50:09;9.30;;;5.78;;
77866;SDS011;67271;59.120;37.970;2023-08-31T11:52:37;15.00;;;4.60;;
77866;SDS011;67271;59.120;37.970;2023-08-31T11:55:08;9.15;;;5.05;;
77866;SDS011;67271;59.120;37.970;2023-08-31T11:57:36;12.50;;;5.15;;
77866;SDS011;67271;59.120;37.970;2023-08-31T12:00:02;7.85;;;4.15;;
77866;SDS011;67271;59.120;37.970;2023-08-31T12:02:37;7.72;;;4.55;;
77866;SDS011;67271;59.120;37.970;2023-08-31T12:05:03;11.90;;;4.60;;
77866;SDS011;67271;59.120;37.970;2023-08-31T12:07:33;7.18;;;4.22;;
77866;SDS011;67271;59.120;37.970;2023-08-31T12:10:06;15.02;;;4.38;;
77866;SDS011;67271;59.120;37.970;2023-08-31T12:12:32;11.45;;;5.63;;
77866;SDS011;67271;59.120;37.970;2023-08-31T12:15:01;13.25;;;6.10;;
77866;SDS011;67271;59.120;37.970;2023-08-31T12:17:29;10.27;;;4.88;;
77866;SDS011;67271;59.120;37.970;2023-08-31T12:20:02;11.20;;;5.07;;
77866;SDS011;67271;59.120;37.970;2023-08-31T12:22:32;11.48;;;4.32;;
77866;SDS011;67271;59.120;37.970;2023-08-31T12:25:00;7.05;;;4.43;;
77866;SDS011;67271;59.120;37.970;2023-08-31T12:27:26;8.32;;;4.40;;
77866;SDS011;67271;59.120;37.970;2023-08-31T12:29:53;9.13;;;4.53;;
77866;SDS011;67271;59.120;37.970;2023-08-31T12:32:19;9.60;;;3.90;;
77866;SDS011;67271;59.120;37.970;2023-08-31T12:34:45;6.88;;;4.38;;
77866;SDS011;67271;59.120;37.970;2023-08-31T12:37:11;7.68;;;4.10;;
77866;SDS011;67271;59.120;37.970;2023-08-31T12:39:37;8.75;;;4.78;;
77866;SDS011;67271;59.120;37.970;2023-08-31T12:42:03;7.15;;;4.43;;
77866;SDS011;67271;59.120;37.970;2023-08-31T12:44:33;9.52;;;4.55;;
77866;SDS011;67271;59.120;37.970;2023-08-31T12:49:24;8.02;;;4.22;;
77866;SDS011;67271;59.120;37.970;2023-08-31T12:51:50;9.18;;;4.72;;
77866;SDS011;67271;59.120;37.970;2023-08-31T12:54:17;6.53;;;4.18;;
77866;SDS011;67271;59.120;37.970;2023-08-31T12:56:44;8.85;;;3.83;;
77866;SDS011;67271;59.120;37.970;2023-08-31T12:59:10;10.50;;;4.50;;
77866;SDS011;67271;59.120;37.970;2023-08-31T13:01:36;8.52;;;4.70;;
77866;SDS011;67271;59.120;37.970;2023-08-31T13:04:02;11.63;;;4.95;;
77866;SDS011;67271;59.120;37.970;2023-08-31T13:06:28;8.32;;;4.57;;
77866;SDS011;67271;59.120;37.970;2023-08-31T13:08:54;9.13;;;4.72;;
77866;SDS011;67271;59.120;37.970;2023-08-31T13:11:20;6.22;;;3.92;;
77866;SDS011;67271;59.120;37.970;2023-08-31T13:13:49;15.98;;;4.75;;
77866;SDS011;67271;59.120;37.970;2023-08-31T13:16:18;7.97;;;4.22;;
77866;SDS011;67271;59.120;37.970;2023-08-31T13:18:44;12.48;;;6.00;;
77866;SDS011;67271;59.120;37.970;2023-08-31T13:21:10;7.82;;;3.78;;
77866;SDS011;67271;59.120;37.970;2023-08-31T13:23:36;8.30;;;4.32;;
77866;SDS011;67271;59.120;37.970;2023-08-31T13:26:02;7.50;;;3.97;;
77866;SDS011;67271;59.120;37.970;2023-08-31T13:28:28;6.05;;;3.90;;
77866;SDS011;67271;59.120;37.970;2023-08-31T13:30:57;5.82;;;3.92;;
77866;SDS011;67271;59.120;37.970;2023-08-31T13:33:26;7.95;;;3.80;;
77866;SDS011;67271;59.120;37.970;2023-08-31T13:35:59;8.48;;;3.88;;
77866;SDS011;67271;59.120;37.970;2023-08-31T13:38:26;7.28;;;4.15;;
77866;SDS011;67271;59.120;37.970;2023-08-31T13:40:55;6.82;;;4.22;;
77866;SDS011;67271;59.120;37.970;2023-08-31T13:43:22;11.10;;;4.70;;
77866;SDS011;67271;59.120;37.970;2023-08-31T13:45:49;11.75;;;3.65;;
77866;SDS011;67271;59.120;37.970;2023-08-31T13:48:14;11.48;;;5.32;;
77866;SDS011;67271;59.120;37.970;2023-08-31T13:50:40;7.75;;;3.95;;
77866;SDS011;67271;59.120;37.970;2023-08-31T13:53:06;6.78;;;3.92;;
77866;SDS011;67271;59.120;37.970;2023-08-31T13:55:32;7.38;;;4.97;;
77866;SDS011;67271;59.120;37.970;2023-08-31T13:58:06;6.28;;;4.13;;
77866;SDS011;67271;59.120;37.970;2023-08-31T14:00:36;8.13;;;4.07;;
77866;SDS011;67271;59.120;37.970;2023-08-31T14:05:29;8.23;;;4.15;;
77866;SDS011;67271;59.120;37.970;2023-08-31T14:07:55;5.38;;;3.45;;
77866;SDS011;67271;59.120;37.970;2023-08-31T14:10:26;11.50;;;4.60;;
77866;SDS011;67271;59.120;37.970;2023-08-31T14:12:52;6.15;;;4.00;;
77866;SDS011;67271;59.120;37.970;2023-08-31T14:15:21;6.35;;;4.25;;
77866;SDS011;67271;59.120;37.970;2023-08-31T14:17:49;9.85;;;3.95;;
77866;SDS011;67271;59.120;37.970;2023-08-31T14:20:16;5.78;;;3.97;;
77866;SDS011;67271;59.120;37.970;2023-08-31T14:22:42;10.90;;;3.50;;
77866;SDS011;67271;59.120;37.970;2023-08-31T14:25:10;7.68;;;4.25;;
77866;SDS011;67271;59.120;37.970;2023-08-31T14:27:40;5.88;;;3.80;;
77866;SDS011;67271;59.120;37.970;2023-08-31T14:30:06;6.65;;;4.03;;
77866;SDS011;67271;59.120;37.970;2023-08-31T14:35:01;7.93;;;3.95;;
77866;SDS011;67271;59.120;37.970;2023-08-31T14:37:27;6.78;;;4.10;;
77866;SDS011;67271;59.120;37.970;2023-08-31T14:39:52;9.77;;;3.97;;
77866;SDS011;67271;59.120;37.970;2023-08-31T14:42:19;10.20;;;3.90;;
77866;SDS011;67271;59.120;37.970;2023-08-31T14:44:47;9.10;;;3.80;;
77866;SDS011;67271;59.120;37.970;2023-08-31T14:47:14;6.30;;;4.40;;
77866;SDS011;67271;59.120;37.970;2023-08-31T14:49:40;5.95;;;3.95;;
77866;SDS011;67271;59.120;37.970;2023-08-31T14:52:06;7.13;;;4.03;;
77866;SDS011;67271;59.120;37.970;2023-08-31T14:54:35;7.60;;;3.45;;
77866;SDS011;67271;59.120;37.970;2023-08-31T14:57:04;7.82;;;4.35;;
77866;SDS011;67271;59.120;37.970;2023-08-31T14:59:30;7.70;;;4.07;;
77866;SDS011;67271;59.120;37.970;2023-08-31T15:01:56;9.05;;;4.85;;